createdAt,value
2023-02-21T00:00:30.044Z,511.00
2023-02-21T00:01:25.206Z,509.00
2023-02-21T00:02:20.182Z,508.00
2023-02-21T00:03:15.357Z,507.00
2023-02-21T00:04:13.547Z,511.00
2023-02-21T00:05:08.661Z,510.00
2023-02-21T00:06:03.883Z,505.00
2023-02-21T00:06:58.912Z,504.00
2023-02-21T00:07:54.063Z,514.00
2023-02-21T00:08:49.059Z,512.00
2023-02-21T00:09:44.104Z,509.00
2023-02-21T00:10:39.259Z,510.00
2023-02-21T00:11:34.232Z,502.00
2023-02-21T00:12:29.653Z,502.00
2023-02-21T00:13:24.517Z,501.00
2023-02-21T00:14:19.394Z,502.00
2023-02-21T00:15:14.380Z,501.00
2023-02-21T00:16:09.567Z,502.00
2023-02-21T00:17:04.572Z,493.00
2023-02-21T00:18:00.295Z,489.00
2023-02-21T00:18:55.401Z,493.00
2023-02-21T00:19:51.352Z,489.00
2023-02-21T00:20:46.303Z,489.00
2023-02-21T00:21:41.568Z,479.00
2023-02-21T00:22:37.470Z,484.00
2023-02-21T00:23:32.697Z,483.00
2023-02-21T00:24:27.770Z,489.00
2023-02-21T00:25:24.270Z,484.00
2023-02-21T00:26:19.488Z,484.00
2023-02-21T00:27:15.185Z,487.00
2023-02-21T00:28:10.334Z,490.00
2023-02-21T00:29:05.696Z,488.00
2023-02-21T00:30:01.378Z,488.00
2023-02-21T00:30:56.730Z,491.00
2023-02-21T00:31:52.620Z,482.00
2023-02-21T00:32:47.648Z,488.00
2023-02-21T00:33:42.826Z,485.00
2023-02-21T00:34:38.541Z,490.00
2023-02-21T00:35:33.765Z,481.00
2023-02-21T00:36:28.752Z,485.00
2023-02-21T00:37:25.143Z,483.00
2023-02-21T00:38:20.441Z,484.00
2023-02-21T00:39:16.214Z,499.00
2023-02-21T00:40:11.445Z,488.00
2023-02-21T00:41:06.587Z,490.00
2023-02-21T00:42:02.381Z,486.00
2023-02-21T00:42:57.512Z,493.00
2023-02-21T00:43:53.329Z,494.00
2023-02-21T00:44:48.393Z,494.00
2023-02-21T00:45:43.856Z,485.00
2023-02-21T00:46:39.359Z,498.00
2023-02-21T00:47:34.512Z,491.00
2023-02-21T00:48:29.580Z,486.00
2023-02-21T00:49:25.951Z,497.00
2023-02-21T00:50:21.062Z,495.00
2023-02-21T00:51:17.139Z,495.00
2023-02-21T00:52:11.994Z,495.00
2023-02-21T00:53:07.106Z,493.00
2023-02-21T00:54:03.399Z,498.00
2023-02-21T00:54:58.124Z,503.00
2023-02-21T00:55:54.193Z,505.00
2023-02-21T00:56:49.154Z,502.00
2023-02-21T00:57:44.301Z,506.00
2023-02-21T00:58:40.339Z,504.00
2023-02-21T00:59:35.369Z,498.00
2023-02-21T01:00:30.555Z,502.00
2023-02-21T01:01:25.700Z,506.00
2023-02-21T01:02:22.349Z,500.00
2023-02-21T01:03:17.578Z,502.00
2023-02-21T01:04:13.038Z,496.00
2023-02-21T01:05:08.705Z,496.00
2023-02-21T01:06:03.842Z,501.00
2023-02-21T01:06:59.074Z,497.00
2023-02-21T01:07:55.283Z,501.00
2023-02-21T01:08:50.557Z,501.00
2023-02-21T01:09:46.349Z,497.00
2023-02-21T01:10:41.463Z,497.00
2023-02-21T01:11:36.706Z,502.00
2023-02-21T01:12:32.416Z,497.00
2023-02-21T01:13:27.515Z,499.00
2023-02-21T01:14:23.453Z,499.00
2023-02-21T01:15:18.554Z,497.00
2023-02-21T01:16:13.720Z,495.00
2023-02-21T01:17:13.389Z,496.00
2023-02-21T01:18:04.743Z,499.00
2023-02-21T01:18:59.875Z,496.00
2023-02-21T01:19:54.954Z,496.00
2023-02-21T01:20:50.061Z,499.00
2023-02-21T01:21:45.883Z,500.00
2023-02-21T01:22:40.998Z,499.00
2023-02-21T01:23:36.351Z,500.00
2023-02-21T01:24:32.071Z,497.00
2023-02-21T01:25:27.296Z,499.00
2023-02-21T01:26:22.291Z,500.00
2023-02-21T01:27:17.510Z,497.00
2023-02-21T01:28:12.635Z,500.00
2023-02-21T01:29:07.740Z,488.00
2023-02-21T01:30:02.860Z,494.00
2023-02-21T01:30:57.780Z,495.00
2023-02-21T01:31:52.763Z,495.00
2023-02-21T01:32:47.908Z,496.00
2023-02-21T01:33:43.131Z,491.00
2023-02-21T01:34:37.949Z,495.00
2023-02-21T01:35:32.960Z,495.00
2023-02-21T01:36:28.068Z,486.00
2023-02-21T01:37:23.034Z,480.00
2023-02-21T01:38:18.151Z,487.00
2023-02-21T01:39:13.151Z,488.00
2023-02-21T01:40:08.277Z,489.00
2023-02-21T01:41:03.356Z,489.00
2023-02-21T01:41:58.464Z,494.00
2023-02-21T01:42:53.462Z,492.00
2023-02-21T01:43:48.575Z,494.00
2023-02-21T01:44:43.635Z,498.00
2023-02-21T01:45:38.745Z,495.00
2023-02-21T01:46:33.854Z,493.00
2023-02-21T01:47:28.925Z,497.00
2023-02-21T01:48:24.017Z,494.00
2023-02-21T01:49:19.469Z,490.00
2023-02-21T01:50:14.201Z,488.00
2023-02-21T01:51:10.008Z,503.00
2023-02-21T01:52:05.128Z,501.00
2023-02-21T01:53:01.090Z,508.00
2023-02-21T01:53:56.033Z,504.00
2023-02-21T01:54:51.579Z,499.00
2023-02-21T01:55:47.257Z,505.00
2023-02-21T01:56:42.515Z,508.00
2023-02-21T01:57:37.596Z,503.00
2023-02-21T01:58:34.201Z,512.00
2023-02-21T01:59:29.338Z,516.00
2023-02-21T02:00:25.127Z,509.00
2023-02-21T02:01:20.341Z,501.00
2023-02-21T02:02:15.510Z,496.00
2023-02-21T02:03:11.396Z,499.00
2023-02-21T02:04:06.941Z,510.00
2023-02-21T02:05:02.193Z,501.00
2023-02-21T02:05:57.442Z,500.00
2023-02-21T02:06:52.837Z,495.00
2023-02-21T02:07:48.538Z,504.00
2023-02-21T02:08:43.717Z,500.00
2023-02-21T02:09:38.946Z,497.00
2023-02-21T02:10:35.411Z,502.00
2023-02-21T02:11:30.587Z,495.00
2023-02-21T02:12:26.389Z,499.00
2023-02-21T02:13:21.502Z,493.00
2023-02-21T02:14:16.634Z,502.00
2023-02-21T02:15:12.462Z,500.00
2023-02-21T02:16:07.631Z,499.00
2023-02-21T02:17:03.886Z,502.00
2023-02-21T02:17:58.569Z,500.00
2023-02-21T02:18:53.849Z,499.00
2023-02-21T02:19:49.808Z,500.00
2023-02-21T02:20:44.943Z,493.00
2023-02-21T02:21:40.143Z,498.00
2023-02-21T02:22:36.502Z,499.00
2023-02-21T02:23:31.725Z,493.00
2023-02-21T02:24:27.581Z,503.00
2023-02-21T02:25:22.786Z,490.00
2023-02-21T02:26:18.038Z,502.00
2023-02-21T02:27:13.834Z,492.00
2023-02-21T02:28:08.970Z,486.00
2023-02-21T02:29:04.774Z,478.00
2023-02-21T02:29:59.995Z,485.00
2023-02-21T02:30:55.386Z,492.00
2023-02-21T02:31:51.225Z,491.00
2023-02-21T02:32:46.257Z,496.00
2023-02-21T02:33:41.349Z,497.00
2023-02-21T02:34:37.713Z,491.00
2023-02-21T02:35:32.810Z,494.00
2023-02-21T02:36:27.911Z,493.00
2023-02-21T02:37:23.173Z,493.00
2023-02-21T02:38:18.405Z,499.00
2023-02-21T02:39:13.529Z,491.00
2023-02-21T02:40:08.621Z,506.00
2023-02-21T02:41:05.370Z,494.00
2023-02-21T02:42:00.345Z,496.00
2023-02-21T02:42:55.839Z,495.00
2023-02-21T02:43:51.789Z,494.00
2023-02-21T02:44:47.017Z,495.00
2023-02-21T02:45:42.393Z,493.00
2023-02-21T02:46:39.662Z,493.00
2023-02-21T02:47:34.626Z,492.00
2023-02-21T02:48:29.903Z,494.00
2023-02-21T02:49:25.019Z,494.00
2023-02-21T02:50:20.124Z,489.00
2023-02-21T02:51:15.670Z,491.00
2023-02-21T02:52:10.330Z,494.00
2023-02-21T02:55:57.146Z,492.00
2023-02-21T02:56:52.112Z,497.00
2023-02-21T02:57:47.186Z,488.00
2023-02-21T02:58:42.274Z,491.00
2023-02-21T02:59:37.481Z,482.00
2023-02-21T03:00:32.804Z,480.00
2023-02-21T03:01:27.940Z,483.00
2023-02-21T03:02:23.452Z,492.00
2023-02-21T03:03:18.234Z,485.00
2023-02-21T03:04:13.224Z,489.00
2023-02-21T03:05:08.296Z,487.00
2023-02-21T03:06:03.638Z,485.00
2023-02-21T03:06:58.755Z,487.00
2023-02-21T03:07:53.825Z,484.00
2023-02-21T03:08:48.936Z,480.00
2023-02-21T03:09:44.001Z,488.00
2023-02-21T03:10:39.226Z,485.00
2023-02-21T03:11:35.198Z,482.00
2023-02-21T03:12:29.456Z,485.00
2023-02-21T03:13:24.507Z,479.00
2023-02-21T03:14:19.750Z,487.00
2023-02-21T03:15:14.939Z,482.00
2023-02-21T03:16:10.392Z,479.00
2023-02-21T03:17:05.499Z,492.00
2023-02-21T03:18:00.621Z,493.00
2023-02-21T03:18:55.692Z,485.00
2023-02-21T03:19:50.917Z,484.00
2023-02-21T03:20:45.985Z,495.00
2023-02-21T03:21:41.214Z,484.00
2023-02-21T03:22:36.298Z,484.00
2023-02-21T03:23:31.624Z,486.00
2023-02-21T03:24:26.575Z,490.00
2023-02-21T03:25:21.641Z,491.00
2023-02-21T03:26:16.984Z,491.00
2023-02-21T03:27:12.133Z,489.00
2023-02-21T03:28:07.196Z,489.00
2023-02-21T03:29:02.346Z,489.00
2023-02-21T03:32:48.176Z,493.00
2023-02-21T03:33:44.046Z,486.00
2023-02-21T03:34:38.296Z,487.00
2023-02-21T03:35:33.525Z,492.00
2023-02-21T03:36:28.573Z,499.00
2023-02-21T03:37:23.796Z,494.00
2023-02-21T03:38:18.886Z,496.00
2023-02-21T03:39:14.100Z,490.00
2023-02-21T03:40:09.163Z,497.00
2023-02-21T03:41:04.408Z,496.00
2023-02-21T03:41:59.500Z,486.00
2023-02-21T03:42:54.880Z,486.00
2023-02-21T03:43:49.843Z,490.00
2023-02-21T03:44:45.105Z,488.00
2023-02-21T03:45:40.179Z,485.00
2023-02-21T03:46:35.398Z,489.00
2023-02-21T03:47:30.452Z,486.00
2023-02-21T03:48:31.923Z,491.00
2023-02-21T03:49:21.708Z,482.00
2023-02-21T03:50:15.853Z,487.00
2023-02-21T03:51:10.921Z,491.00
2023-02-21T03:52:06.147Z,496.00
2023-02-21T03:53:01.244Z,490.00
2023-02-21T03:53:56.486Z,491.00
2023-02-21T03:54:51.703Z,495.00
2023-02-21T03:55:46.825Z,497.00
2023-02-21T03:56:42.578Z,487.00
2023-02-21T03:57:37.059Z,495.00
2023-02-21T03:58:32.278Z,492.00
2023-02-21T03:59:27.418Z,502.00
2023-02-21T04:00:22.516Z,497.00
2023-02-21T04:01:17.927Z,493.00
2023-02-21T04:02:12.870Z,492.00
2023-02-21T04:03:07.953Z,493.00
2023-02-21T04:04:03.128Z,496.00
2023-02-21T04:04:58.338Z,495.00
2023-02-21T04:05:53.455Z,498.00
2023-02-21T04:06:48.534Z,495.00
2023-02-21T04:07:43.614Z,496.00
2023-02-21T04:08:38.965Z,496.00
2023-02-21T04:09:33.892Z,488.00
2023-02-21T04:10:29.031Z,492.00
2023-02-21T04:11:24.072Z,494.00
2023-02-21T04:12:19.280Z,489.00
2023-02-21T04:13:14.499Z,498.00
2023-02-21T04:14:09.601Z,502.00
2023-02-21T04:15:04.856Z,497.00
2023-02-21T04:15:59.998Z,488.00
2023-02-21T04:16:55.190Z,490.00
2023-02-21T04:17:50.260Z,491.00
2023-02-21T04:18:45.472Z,488.00
2023-02-21T04:19:40.709Z,499.00
2023-02-21T04:20:35.937Z,498.00
2023-02-21T04:21:31.027Z,532.00
2023-02-21T04:22:26.083Z,515.00
2023-02-21T04:23:21.185Z,498.00
2023-02-21T04:24:16.226Z,493.00
2023-02-21T04:25:11.577Z,495.00
2023-02-21T04:26:06.806Z,491.00
2023-02-21T04:27:01.734Z,501.00
2023-02-21T04:27:56.817Z,501.00
2023-02-21T04:28:52.056Z,504.00
2023-02-21T04:29:47.107Z,507.00
2023-02-21T04:30:42.390Z,505.00
2023-02-21T04:31:37.686Z,504.00
2023-02-21T04:32:32.709Z,506.00
2023-02-21T04:33:27.788Z,503.00
2023-02-21T04:34:23.152Z,505.00
2023-02-21T04:35:18.223Z,513.00
2023-02-21T04:36:13.327Z,508.00
2023-02-21T04:37:08.390Z,506.00
2023-02-21T04:38:03.606Z,512.00
2023-02-21T04:38:58.681Z,503.00
2023-02-21T04:39:53.790Z,507.00
2023-02-21T04:40:48.865Z,505.00
2023-02-21T04:41:44.091Z,505.00
2023-02-21T04:42:39.143Z,512.00
2023-02-21T04:43:34.257Z,509.00
2023-02-21T04:44:29.322Z,505.00
2023-02-21T04:45:24.821Z,519.00
2023-02-21T04:46:19.678Z,507.00
2023-02-21T04:47:14.758Z,497.00
2023-02-21T04:48:09.835Z,501.00
2023-02-21T04:49:05.048Z,502.00
2023-02-21T04:50:00.143Z,499.00
2023-02-21T04:50:59.179Z,495.00
2023-02-21T04:51:51.325Z,499.00
2023-02-21T04:52:45.466Z,501.00
2023-02-21T04:53:40.670Z,501.00
2023-02-21T04:54:35.898Z,501.00
2023-02-21T04:55:30.986Z,502.00
2023-02-21T04:56:26.240Z,500.00
2023-02-21T04:57:21.428Z,512.00
2023-02-21T04:58:16.531Z,501.00
2023-02-21T04:59:11.592Z,497.00
2023-02-21T05:00:06.971Z,494.00
2023-02-21T05:01:01.926Z,498.00
2023-02-21T05:01:57.261Z,495.00
2023-02-21T05:02:52.219Z,494.00
2023-02-21T05:03:47.440Z,488.00
2023-02-21T05:04:42.503Z,491.00
2023-02-21T05:05:37.607Z,495.00
2023-02-21T05:06:32.783Z,495.00
2023-02-21T05:07:27.980Z,494.00
2023-02-21T05:08:25.560Z,484.00
2023-02-21T05:09:18.092Z,490.00
2023-02-21T05:10:13.211Z,504.00
2023-02-21T05:11:08.436Z,507.00
2023-02-21T05:12:03.483Z,505.00
2023-02-21T05:12:58.848Z,512.00
2023-02-21T05:13:53.793Z,512.00
2023-02-21T05:14:48.984Z,511.00
2023-02-21T05:15:44.073Z,510.00
2023-02-21T05:16:39.334Z,507.00
2023-02-21T05:17:34.704Z,512.00
2023-02-21T05:18:29.780Z,517.00
2023-02-21T05:19:24.836Z,521.00
2023-02-21T05:20:19.933Z,514.00
2023-02-21T05:21:15.367Z,525.00
2023-02-21T05:22:10.331Z,518.00
2023-02-21T05:23:13.538Z,521.00
2023-02-21T05:24:01.684Z,530.00
2023-02-21T05:24:55.688Z,529.00
2023-02-21T05:25:50.912Z,532.00
2023-02-21T05:26:46.006Z,528.00
2023-02-21T05:27:41.110Z,519.00
2023-02-21T05:30:02.394Z,517.00
2023-02-21T05:30:59.729Z,521.00
2023-02-21T05:31:52.483Z,508.00
2023-02-21T05:32:47.572Z,508.00
2023-02-21T05:33:42.790Z,507.00
2023-02-21T05:34:38.020Z,502.00
2023-02-21T05:35:33.014Z,499.00
2023-02-21T05:36:28.100Z,497.00
2023-02-21T05:37:23.321Z,498.00
2023-02-21T05:38:18.447Z,501.00
2023-02-21T05:39:13.606Z,498.00
2023-02-21T05:41:37.049Z,496.00
2023-02-21T05:42:30.259Z,498.00
2023-02-21T05:43:29.129Z,498.00
2023-02-21T05:44:20.596Z,498.00
2023-02-21T05:45:16.059Z,492.00
2023-02-21T05:46:10.944Z,497.00
2023-02-21T05:47:06.063Z,495.00
2023-02-21T05:48:01.293Z,498.00
2023-02-21T05:48:56.500Z,510.00
2023-02-21T05:49:51.726Z,509.00
2023-02-21T05:50:47.033Z,511.00
2023-02-21T05:51:42.137Z,502.00
2023-02-21T05:52:37.106Z,501.00
2023-02-21T05:53:32.341Z,506.00
2023-02-21T05:54:27.436Z,512.00
2023-02-21T05:55:22.664Z,507.00
2023-02-21T05:56:17.864Z,508.00
2023-02-21T05:57:12.957Z,510.00
2023-02-21T05:58:08.055Z,513.00
2023-02-21T05:59:03.332Z,516.00
2023-02-21T05:59:58.504Z,516.00
2023-02-21T06:00:53.658Z,520.00
2023-02-21T06:01:48.954Z,520.00
2023-02-21T06:02:44.008Z,522.00
2023-02-21T06:03:39.207Z,524.00
2023-02-21T06:04:35.242Z,519.00
2023-02-21T06:05:29.534Z,550.00
2023-02-21T06:06:24.905Z,519.00
2023-02-21T06:07:19.936Z,525.00
2023-02-21T06:08:15.202Z,525.00
2023-02-21T06:09:10.452Z,523.00
2023-02-21T06:10:05.645Z,526.00
2023-02-21T06:11:00.787Z,528.00
2023-02-21T06:11:55.978Z,544.00
2023-02-21T06:12:51.173Z,533.00
2023-02-21T06:13:46.397Z,548.00
2023-02-21T06:14:41.636Z,543.00
2023-02-21T06:15:36.929Z,543.00
2023-02-21T06:16:32.110Z,533.00
2023-02-21T06:17:27.394Z,532.00
2023-02-21T06:18:22.659Z,523.00
2023-02-21T06:19:18.058Z,529.00
2023-02-21T06:20:13.183Z,533.00
2023-02-21T06:21:08.427Z,535.00
2023-02-21T06:22:03.700Z,529.00
2023-02-21T06:22:58.972Z,520.00
2023-02-21T06:23:54.669Z,526.00
2023-02-21T06:24:51.818Z,515.00
2023-02-21T06:25:44.880Z,523.00
2023-02-21T06:26:40.290Z,519.00
2023-02-21T06:27:35.468Z,526.00
2023-02-21T06:28:30.745Z,535.00
2023-02-21T06:29:25.993Z,526.00
2023-02-21T06:30:23.168Z,529.00
2023-02-21T06:31:16.780Z,546.00
2023-02-21T06:32:12.360Z,556.00
2023-02-21T06:33:07.229Z,540.00
2023-02-21T06:34:02.524Z,542.00
2023-02-21T06:34:57.787Z,541.00
2023-02-21T06:35:53.827Z,547.00
2023-02-21T06:36:48.513Z,547.00
2023-02-21T06:37:43.662Z,548.00
2023-02-21T06:38:38.893Z,546.00
2023-02-21T06:39:34.204Z,551.00
2023-02-21T06:40:29.512Z,546.00
2023-02-21T06:41:26.981Z,549.00
2023-02-21T06:42:20.184Z,547.00
2023-02-21T06:43:15.512Z,559.00
2023-02-21T06:44:10.828Z,551.00
2023-02-21T06:45:06.180Z,553.00
2023-02-21T06:46:01.735Z,555.00
2023-02-21T06:46:58.092Z,564.00
2023-02-21T06:47:52.231Z,544.00
2023-02-21T06:48:47.587Z,549.00
2023-02-21T06:49:42.988Z,547.00
2023-02-21T06:50:38.294Z,547.00
2023-02-21T06:51:33.624Z,540.00
2023-02-21T06:52:29.824Z,538.00
2023-02-21T06:53:24.362Z,523.00
2023-02-21T06:54:19.680Z,540.00
2023-02-21T06:55:15.042Z,527.00
2023-02-21T06:56:10.388Z,517.00
2023-02-21T06:57:05.907Z,511.00
2023-02-21T06:58:01.174Z,503.00
2023-02-21T06:58:56.544Z,509.00
2023-02-21T06:59:51.938Z,505.00
2023-02-21T07:00:47.308Z,503.00
2023-02-21T07:01:42.701Z,502.00
2023-02-21T07:02:38.225Z,492.00
2023-02-21T07:03:33.475Z,491.00
2023-02-21T07:04:28.926Z,487.00
2023-02-21T07:05:24.185Z,500.00
2023-02-21T07:06:19.542Z,487.00
2023-02-21T07:07:15.034Z,496.00
2023-02-21T07:08:10.424Z,503.00
2023-02-21T07:09:05.625Z,498.00
2023-02-21T07:10:01.064Z,496.00
2023-02-21T07:10:56.448Z,500.00
2023-02-21T07:11:51.816Z,496.00
2023-02-21T07:12:47.287Z,506.00
2023-02-21T07:13:42.528Z,516.00
2023-02-21T07:14:37.890Z,501.00
2023-02-21T07:15:33.283Z,509.00
2023-02-21T07:16:28.638Z,494.00
2023-02-21T07:17:24.149Z,503.00
2023-02-21T07:18:19.405Z,504.00
2023-02-21T07:19:14.915Z,508.00
2023-02-21T07:20:10.176Z,503.00
2023-02-21T07:21:05.544Z,502.00
2023-02-21T07:22:00.888Z,504.00
2023-02-21T07:22:56.277Z,502.00
2023-02-21T07:23:51.641Z,497.00
2023-02-21T07:24:47.132Z,512.00
2023-02-21T07:25:42.387Z,508.00
2023-02-21T07:26:37.738Z,503.00
2023-02-21T07:27:33.229Z,503.00
2023-02-21T07:28:28.623Z,497.00
2023-02-21T07:29:23.996Z,504.00
2023-02-21T07:30:19.333Z,504.00
2023-02-21T07:31:16.073Z,507.00
2023-02-21T07:32:10.144Z,506.00
2023-02-21T07:33:05.391Z,501.00
2023-02-21T07:34:00.782Z,498.00
2023-02-21T07:34:56.163Z,499.00
2023-02-21T07:35:51.574Z,501.00
2023-02-21T07:36:46.959Z,508.00
2023-02-21T07:37:42.468Z,510.00
2023-02-21T07:38:37.717Z,509.00
2023-02-21T07:39:33.095Z,514.00
2023-02-21T07:40:28.642Z,509.00
2023-02-21T07:41:23.861Z,507.00
2023-02-21T07:42:19.235Z,511.00
2023-02-21T07:43:14.628Z,572.00
2023-02-21T07:44:09.982Z,547.00
2023-02-21T07:45:05.381Z,527.00
2023-02-21T07:46:00.819Z,515.00
2023-02-21T07:46:56.245Z,515.00
2023-02-21T07:47:51.761Z,543.00
2023-02-21T07:48:46.957Z,524.00
2023-02-21T07:49:42.278Z,505.00
2023-02-21T07:50:37.702Z,508.00
2023-02-21T07:51:33.159Z,506.00
2023-02-21T07:52:28.391Z,505.00
2023-02-21T07:53:23.768Z,504.00
2023-02-21T07:54:19.179Z,508.00
2023-02-21T07:55:14.567Z,501.00
2023-02-21T07:56:10.083Z,512.00
2023-02-21T07:57:05.326Z,507.00
2023-02-21T07:58:00.831Z,501.00
2023-02-21T07:58:56.064Z,504.00
2023-02-21T07:59:51.420Z,502.00
2023-02-21T08:00:46.784Z,508.00
2023-02-21T08:01:42.201Z,503.00
2023-02-21T08:02:37.538Z,503.00
2023-02-21T08:03:32.934Z,506.00
2023-02-21T08:04:28.308Z,507.00
2023-02-21T08:05:23.660Z,497.00
2023-02-21T08:06:19.074Z,504.00
2023-02-21T08:07:14.445Z,500.00
2023-02-21T08:08:09.928Z,501.00
2023-02-21T08:09:05.727Z,499.00
2023-02-21T08:10:00.605Z,496.00
2023-02-21T08:10:56.000Z,495.00
2023-02-21T08:11:51.381Z,502.00
2023-02-21T08:12:46.865Z,495.00
2023-02-21T08:13:42.071Z,498.00
2023-02-21T08:14:37.434Z,489.00
2023-02-21T08:15:32.798Z,490.00
2023-02-21T08:16:28.294Z,492.00
2023-02-21T08:17:23.499Z,488.00
2023-02-21T08:18:19.258Z,485.00
2023-02-21T08:19:14.236Z,479.00
2023-02-21T08:20:09.704Z,484.00
2023-02-21T08:21:04.956Z,485.00
2023-02-21T08:22:00.314Z,486.00
2023-02-21T08:22:55.673Z,484.00
2023-02-21T08:25:15.833Z,494.00
2023-02-21T08:26:11.109Z,496.00
2023-02-21T08:27:06.496Z,494.00
2023-02-21T08:28:01.896Z,503.00
2023-02-21T08:28:57.270Z,502.00
2023-02-21T08:29:52.690Z,501.00
2023-02-21T08:30:48.089Z,498.00
2023-02-21T08:31:43.595Z,499.00
2023-02-21T08:32:38.918Z,493.00
2023-02-21T08:33:34.220Z,502.00
2023-02-21T08:34:29.617Z,497.00
2023-02-21T08:35:25.319Z,502.00
2023-02-21T08:36:20.638Z,506.00
2023-02-21T08:37:16.038Z,501.00
2023-02-21T08:38:11.727Z,504.00
2023-02-21T08:39:07.079Z,502.00
2023-02-21T08:40:02.329Z,502.00
2023-02-21T08:40:57.831Z,503.00
2023-02-21T08:41:53.270Z,504.00
2023-02-21T08:42:48.771Z,498.00
2023-02-21T08:43:44.209Z,502.00
2023-02-21T08:44:39.584Z,500.00
2023-02-21T08:45:34.982Z,497.00
2023-02-21T08:46:30.589Z,492.00
2023-02-21T08:47:26.949Z,488.00
2023-02-21T08:48:21.432Z,510.00
2023-02-21T08:49:17.016Z,511.00
2023-02-21T08:50:12.444Z,487.00
2023-02-21T08:51:07.862Z,491.00
2023-02-21T08:52:03.489Z,486.00
2023-02-21T08:52:58.917Z,483.00
2023-02-21T08:53:54.343Z,484.00
2023-02-21T08:54:49.902Z,489.00
2023-02-21T08:55:45.401Z,487.00
2023-02-21T08:56:40.993Z,490.00
2023-02-21T08:57:36.961Z,495.00
2023-02-21T08:58:32.031Z,488.00
2023-02-21T08:59:27.541Z,486.00
2023-02-21T09:00:23.046Z,485.00
2023-02-21T09:01:18.864Z,484.00
2023-02-21T09:02:13.978Z,488.00
2023-02-21T09:03:09.740Z,486.00
2023-02-21T09:04:04.990Z,488.00
2023-02-21T09:05:00.449Z,491.00
2023-02-21T09:05:56.083Z,493.00
2023-02-21T09:06:51.628Z,491.00
2023-02-21T09:07:47.049Z,489.00
2023-02-21T09:08:42.788Z,493.00
2023-02-21T09:09:38.328Z,500.00
2023-02-21T09:10:34.016Z,498.00
2023-02-21T09:11:29.341Z,498.00
2023-02-21T09:12:25.083Z,497.00
2023-02-21T09:13:20.204Z,494.00
2023-02-21T09:14:15.890Z,495.00
2023-02-21T09:15:11.286Z,492.00
2023-02-21T09:16:06.829Z,486.00
2023-02-21T09:17:02.221Z,486.00
2023-02-21T09:17:57.634Z,495.00
2023-02-21T09:18:53.312Z,492.00
2023-02-21T09:19:48.577Z,491.00
2023-02-21T09:20:44.086Z,495.00
2023-02-21T09:21:39.654Z,485.00
2023-02-21T09:22:35.322Z,485.00
2023-02-21T09:23:32.297Z,491.00
2023-02-21T09:24:26.393Z,484.00
2023-02-21T09:25:21.794Z,484.00
2023-02-21T09:26:17.336Z,485.00
2023-02-21T09:27:12.765Z,488.00
2023-02-21T09:28:08.186Z,495.00
2023-02-21T09:29:03.722Z,487.00
2023-02-21T09:29:59.393Z,497.00
2023-02-21T09:30:54.769Z,481.00
2023-02-21T09:31:50.383Z,489.00
2023-02-21T09:32:45.907Z,494.00
2023-02-21T09:33:41.412Z,491.00
2023-02-21T09:34:37.109Z,493.00
2023-02-21T09:35:32.467Z,491.00
2023-02-21T09:36:27.842Z,494.00
2023-02-21T09:38:50.234Z,504.00
2023-02-21T09:39:43.791Z,503.00
2023-02-21T09:40:39.175Z,500.00
2023-02-21T09:41:34.681Z,503.00
2023-02-21T09:42:29.948Z,505.00
2023-02-21T09:43:25.403Z,511.00
2023-02-21T09:44:20.933Z,502.00
2023-02-21T09:45:16.421Z,513.00
2023-02-21T09:46:12.497Z,503.00
2023-02-21T09:47:07.598Z,500.00
2023-02-21T09:48:03.060Z,513.00
2023-02-21T09:48:58.596Z,511.00
2023-02-21T09:49:53.974Z,520.00
2023-02-21T09:50:49.853Z,523.00
2023-02-21T09:51:45.065Z,518.00
2023-02-21T09:52:40.586Z,517.00
2023-02-21T09:53:36.062Z,514.00
2023-02-21T09:54:31.538Z,520.00
2023-02-21T09:55:29.044Z,527.00
2023-02-21T09:56:22.810Z,515.00
2023-02-21T09:57:18.135Z,517.00
2023-02-21T09:58:13.660Z,523.00
2023-02-21T09:59:09.168Z,521.00
2023-02-21T10:00:04.711Z,524.00
2023-02-21T10:01:00.213Z,521.00
2023-02-21T10:01:55.776Z,513.00
2023-02-21T10:02:51.253Z,518.00
2023-02-21T10:03:46.890Z,515.00
2023-02-21T10:04:42.340Z,514.00
2023-02-21T10:05:37.709Z,521.00
2023-02-21T10:06:33.203Z,518.00
2023-02-21T10:07:28.598Z,516.00
2023-02-21T10:08:24.026Z,518.00
2023-02-21T10:09:19.302Z,529.00
2023-02-21T10:10:14.817Z,525.00
2023-02-21T10:11:10.381Z,527.00
2023-02-21T10:12:06.255Z,523.00
2023-02-21T10:13:01.252Z,521.00
2023-02-21T10:13:56.808Z,518.00
2023-02-21T10:14:52.337Z,527.00
2023-02-21T10:15:47.707Z,525.00
2023-02-21T10:16:43.271Z,523.00
2023-02-21T10:17:38.908Z,519.00
2023-02-21T10:18:34.322Z,516.00
2023-02-21T10:19:30.099Z,525.00
2023-02-21T10:20:25.468Z,523.00
2023-02-21T10:21:20.905Z,519.00
2023-02-21T10:22:16.362Z,528.00
2023-02-21T10:23:11.785Z,519.00
2023-02-21T10:24:07.468Z,526.00
2023-02-21T10:25:02.722Z,526.00
2023-02-21T10:25:58.202Z,525.00
2023-02-21T10:26:53.715Z,516.00
2023-02-21T10:27:49.977Z,517.00
2023-02-21T10:28:44.815Z,525.00
2023-02-21T10:29:40.465Z,530.00
2023-02-21T10:30:36.038Z,519.00
2023-02-21T10:31:31.543Z,523.00
2023-02-21T10:32:26.783Z,520.00
2023-02-21T10:33:22.367Z,527.00
2023-02-21T10:34:17.764Z,520.00
2023-02-21T10:35:13.401Z,522.00
2023-02-21T10:36:08.722Z,522.00
2023-02-21T10:37:04.323Z,528.00
2023-02-21T10:37:59.636Z,519.00
2023-02-21T10:38:55.234Z,523.00
2023-02-21T10:39:50.713Z,512.00
2023-02-21T10:40:46.072Z,516.00
2023-02-21T10:41:41.538Z,517.00
2023-02-21T10:42:37.003Z,519.00
2023-02-21T10:43:32.543Z,527.00
2023-02-21T10:44:27.807Z,531.00
2023-02-21T10:45:23.174Z,559.00
2023-02-21T10:46:18.672Z,546.00
2023-02-21T10:47:14.079Z,540.00
2023-02-21T10:48:09.599Z,541.00
2023-02-21T10:49:04.930Z,549.00
2023-02-21T10:50:00.313Z,550.00
2023-02-21T10:50:55.721Z,546.00
2023-02-21T10:51:51.109Z,539.00
2023-02-21T10:52:46.496Z,547.00
2023-02-21T10:53:41.941Z,545.00
2023-02-21T10:54:37.351Z,538.00
2023-02-21T10:55:33.689Z,540.00
2023-02-21T10:56:28.194Z,545.00
2023-02-21T10:57:23.632Z,528.00
2023-02-21T10:58:19.039Z,539.00
2023-02-21T10:59:14.460Z,534.00
2023-02-21T11:00:10.145Z,534.00
2023-02-21T11:01:05.369Z,535.00
2023-02-21T11:02:00.663Z,536.00
2023-02-21T11:02:56.143Z,542.00
2023-02-21T11:03:51.465Z,538.00
2023-02-21T11:04:47.003Z,538.00
2023-02-21T11:05:42.813Z,537.00
2023-02-21T11:06:38.343Z,546.00
2023-02-21T11:07:33.789Z,547.00
2023-02-21T11:08:29.352Z,550.00
2023-02-21T11:09:24.662Z,553.00
2023-02-21T11:10:20.112Z,558.00
2023-02-21T11:11:15.705Z,539.00
2023-02-21T11:12:11.114Z,538.00
2023-02-21T11:13:06.513Z,544.00
2023-02-21T11:14:01.973Z,538.00
2023-02-21T11:14:57.702Z,541.00
2023-02-21T11:15:52.633Z,537.00
2023-02-21T11:16:47.615Z,541.00
2023-02-21T11:17:42.675Z,536.00
2023-02-21T11:18:37.688Z,539.00
2023-02-21T11:19:32.715Z,529.00
2023-02-21T11:20:27.955Z,526.00
2023-02-21T11:21:22.824Z,531.00
2023-02-21T11:22:17.841Z,531.00
2023-02-21T11:23:12.987Z,533.00
2023-02-21T11:24:08.017Z,531.00
2023-02-21T11:25:04.290Z,529.00
2023-02-21T11:25:59.481Z,536.00
2023-02-21T11:26:54.398Z,538.00
2023-02-21T11:27:49.417Z,538.00
2023-02-21T11:28:45.654Z,537.00
2023-02-21T11:29:41.209Z,538.00
2023-02-21T11:30:36.618Z,536.00
2023-02-21T11:31:32.069Z,537.00
2023-02-21T11:32:27.736Z,542.00
2023-02-21T11:33:23.174Z,536.00
2023-02-21T11:34:18.604Z,540.00
2023-02-21T11:35:14.065Z,545.00
2023-02-21T11:36:12.142Z,534.00
2023-02-21T11:37:05.302Z,536.00
2023-02-21T11:38:00.834Z,536.00
2023-02-21T11:38:56.284Z,537.00
2023-02-21T11:39:51.875Z,536.00
2023-02-21T11:40:47.388Z,533.00
2023-02-21T11:41:42.540Z,520.00